createdAt,value
2017-12-13T00:00:24.783Z,33.20
2017-12-13T00:02:51.203Z,34.03
2017-12-13T00:05:17.541Z,28.67
2017-12-13T00:07:43.856Z,30.10
2017-12-13T00:10:10.302Z,28.53
2017-12-13T00:12:36.735Z,30.13
2017-12-13T00:15:03.889Z,29.17
2017-12-13T00:17:30.363Z,28.80
2017-12-13T00:19:56.843Z,28.90
2017-12-13T00:22:23.225Z,28.60
2017-12-13T00:24:49.557Z,30.50
2017-12-13T00:27:15.966Z,29.80
2017-12-13T00:29:42.393Z,29.97
2017-12-13T00:32:09.646Z,29.77
2017-12-13T00:34:36.133Z,30.20
2017-12-13T00:37:02.445Z,28.20
2017-12-13T00:39:28.847Z,30.30
2017-12-13T00:41:55.213Z,30.57
2017-12-13T00:44:21.618Z,30.87
2017-12-13T00:46:48.049Z,31.33
2017-12-13T00:49:15.202Z,29.03
2017-12-13T00:51:41.636Z,29.67
2017-12-13T00:54:08.000Z,30.00
2017-12-13T00:56:34.401Z,30.37
2017-12-13T00:59:00.836Z,29.20
2017-12-13T01:01:27.374Z,30.97
2017-12-13T01:03:53.808Z,30.90
2017-12-13T01:06:20.856Z,30.43
2017-12-13T01:08:47.225Z,32.53
2017-12-13T01:11:13.655Z,33.07
2017-12-13T01:13:40.059Z,31.47
2017-12-13T01:16:06.493Z,31.00
2017-12-13T01:18:32.927Z,31.90
2017-12-13T01:20:59.363Z,30.30
2017-12-13T01:23:26.486Z,28.70
2017-12-13T01:25:52.928Z,27.70
2017-12-13T01:28:19.371Z,31.23
2017-12-13T01:30:45.765Z,30.07
2017-12-13T01:33:12.252Z,29.50
2017-12-13T01:35:38.772Z,31.07
2017-12-13T01:38:05.223Z,29.00
2017-12-13T01:40:32.356Z,29.67
2017-12-13T01:42:58.808Z,29.80
2017-12-13T01:45:25.175Z,30.43
2017-12-13T01:47:51.510Z,29.80
2017-12-13T01:50:17.908Z,29.60
2017-12-13T01:52:44.342Z,29.20
2017-12-13T01:55:10.781Z,31.03
2017-12-13T01:57:37.928Z,32.10
2017-12-13T02:00:04.367Z,31.20
2017-12-13T02:02:30.798Z,32.87
2017-12-13T02:04:57.335Z,30.90
2017-12-13T02:07:23.771Z,30.50
2017-12-13T02:09:50.205Z,30.47
2017-12-13T02:12:16.638Z,32.53
2017-12-13T02:14:43.892Z,35.93
2017-12-13T02:17:10.227Z,33.03
2017-12-13T02:19:36.660Z,30.20
2017-12-13T02:22:03.071Z,28.87
2017-12-13T02:24:29.530Z,25.23
2017-12-13T02:26:55.861Z,30.17
2017-12-13T02:29:22.293Z,30.37
2017-12-13T02:31:49.447Z,31.27
2017-12-13T02:34:15.899Z,30.13
2017-12-13T02:36:42.316Z,30.73
2017-12-13T02:39:08.750Z,30.23
2017-12-13T02:41:35.188Z,31.50
2017-12-13T02:44:01.640Z,29.60
2017-12-13T02:46:28.053Z,27.97
2017-12-13T02:48:55.201Z,26.60
2017-12-13T02:51:21.515Z,26.00
2017-12-13T02:53:47.869Z,26.00
2017-12-13T02:56:14.305Z,24.50
2017-12-13T02:58:40.748Z,26.60
2017-12-13T03:01:07.174Z,26.60
2017-12-13T03:03:33.607Z,26.73
2017-12-13T03:06:00.829Z,26.17
2017-12-13T03:08:27.229Z,26.47
2017-12-13T03:10:53.712Z,25.83
2017-12-13T03:13:20.166Z,24.10
2017-12-13T03:15:46.600Z,22.27
2017-12-13T03:18:12.932Z,24.83
2017-12-13T03:20:39.366Z,24.93
2017-12-13T03:23:06.518Z,24.40
2017-12-13T03:25:32.952Z,26.10
2017-12-13T03:27:59.387Z,25.73
2017-12-13T03:30:25.821Z,30.00
2017-12-13T03:32:52.191Z,28.20
2017-12-13T03:35:18.588Z,24.27
2017-12-13T03:37:45.024Z,24.80
2017-12-13T03:40:12.266Z,23.97
2017-12-13T03:42:38.711Z,24.30
2017-12-13T03:45:05.146Z,25.20
2017-12-13T03:47:31.580Z,32.50
2017-12-13T03:49:58.015Z,26.00
2017-12-13T03:52:24.450Z,26.47
2017-12-13T03:54:50.906Z,30.00
2017-12-13T03:57:18.141Z,25.70
2017-12-13T03:59:44.573Z,28.63
2017-12-13T04:02:11.008Z,26.07
2017-12-13T04:04:37.442Z,24.33
2017-12-13T04:07:03.879Z,23.23
2017-12-13T04:09:30.333Z,24.73
2017-12-13T04:11:56.746Z,22.73
2017-12-13T04:14:23.897Z,22.73
2017-12-13T04:16:50.299Z,22.20
2017-12-13T04:19:16.769Z,21.90
2017-12-13T04:21:43.203Z,22.10
2017-12-13T04:24:09.637Z,21.97
2017-12-13T04:26:36.071Z,23.80
2017-12-13T04:29:02.607Z,22.37
2017-12-13T04:31:29.651Z,28.20
2017-12-13T04:33:56.094Z,26.80
2017-12-13T04:36:22.559Z,25.10
2017-12-13T04:38:48.962Z,27.43
2017-12-13T04:41:15.398Z,31.60
2017-12-13T04:43:41.831Z,31.20
2017-12-13T04:46:08.265Z,31.50
2017-12-13T04:48:35.416Z,34.03
2017-12-13T04:51:01.952Z,32.00
2017-12-13T04:53:28.388Z,31.83
2017-12-13T04:55:54.821Z,30.77
2017-12-13T04:58:21.184Z,29.60
2017-12-13T05:00:47.588Z,30.83
2017-12-13T05:03:13.920Z,30.57
2017-12-13T05:05:41.174Z,29.10
2017-12-13T05:08:07.609Z,33.90
2017-12-13T05:10:34.042Z,32.30
2017-12-13T05:13:00.580Z,28.90
2017-12-13T05:15:27.014Z,30.00
2017-12-13T05:17:53.453Z,32.30
2017-12-13T05:20:19.817Z,33.43
2017-12-13T05:22:47.035Z,29.83
2017-12-13T05:25:13.473Z,35.50
2017-12-13T05:27:39.890Z,35.77
2017-12-13T05:30:06.277Z,33.97
2017-12-13T05:32:32.776Z,34.10
2017-12-13T05:34:59.209Z,36.90
2017-12-13T05:37:25.643Z,36.07
2017-12-13T05:39:52.775Z,34.27
2017-12-13T05:42:19.156Z,34.50
2017-12-13T05:44:45.535Z,34.50
2017-12-13T05:47:11.903Z,38.23
2017-12-13T05:49:38.328Z,39.27
2017-12-13T05:52:04.660Z,49.40
2017-12-13T05:54:31.096Z,46.10
2017-12-13T05:56:58.276Z,44.67
2017-12-13T05:59:24.783Z,46.30
2017-12-13T06:01:51.164Z,107.97
2017-12-13T06:04:17.652Z,111.20
2017-12-13T06:06:44.086Z,46.40
2017-12-13T06:09:10.521Z,51.07
2017-12-13T06:11:36.956Z,56.63
2017-12-13T06:14:04.208Z,48.20
2017-12-13T06:16:30.664Z,52.07
2017-12-13T06:18:57.078Z,53.80
2017-12-13T06:21:23.513Z,49.87
2017-12-13T06:23:49.845Z,51.13
2017-12-13T06:26:16.382Z,50.87
2017-12-13T06:28:42.816Z,51.30
2017-12-13T06:31:09.868Z,52.60
2017-12-13T06:33:36.405Z,52.20
2017-12-13T06:36:02.940Z,53.70
2017-12-13T06:38:29.375Z,55.57
2017-12-13T06:40:55.810Z,73.77
2017-12-13T06:43:22.243Z,84.00
2017-12-13T06:45:48.678Z,71.47
2017-12-13T06:48:15.051Z,94.43
2017-12-13T06:50:41.956Z,74.10
2017-12-13T06:53:08.397Z,95.27
2017-12-13T06:55:34.833Z,94.00
2017-12-13T06:58:02.182Z,84.93
2017-12-13T07:00:28.616Z,88.63
2017-12-13T07:13:01.005Z,70.57
2017-12-13T07:15:27.808Z,59.93
2017-12-13T07:17:54.241Z,71.13
2017-12-13T07:20:20.780Z,61.17
2017-12-13T07:22:47.635Z,59.73
2017-12-13T07:25:13.957Z,57.43
2017-12-13T07:27:40.291Z,64.13
2017-12-13T07:30:06.723Z,84.67
2017-12-13T07:32:33.465Z,108.00
2017-12-13T07:34:59.901Z,66.20
2017-12-13T07:37:26.332Z,59.67
2017-12-13T07:39:52.971Z,56.90
2017-12-13T07:42:19.406Z,51.57
2017-12-13T07:44:45.738Z,38.10
2017-12-13T07:47:12.584Z,32.60
2017-12-13T07:49:39.024Z,32.27
2017-12-13T07:52:05.554Z,46.00
2017-12-13T07:54:32.388Z,42.07
2017-12-13T07:56:58.833Z,41.17
2017-12-13T07:59:25.212Z,45.27
2017-12-13T08:01:51.804Z,49.97
2017-12-13T08:04:18.192Z,53.93
2017-12-13T08:06:44.749Z,54.90
2017-12-13T08:09:11.550Z,55.67
2017-12-13T08:11:38.157Z,48.47
2017-12-13T08:14:04.591Z,45.40
2017-12-13T08:16:31.272Z,45.20
2017-12-13T08:18:57.666Z,49.70
2017-12-13T08:21:24.053Z,51.87
2017-12-13T08:23:50.773Z,30.30
2017-12-13T08:26:18.533Z,27.10
2017-12-13T08:28:45.210Z,25.77
2017-12-13T08:31:11.936Z,26.67
2017-12-13T08:33:38.529Z,28.23
2017-12-13T08:36:04.932Z,22.60
2017-12-13T08:38:31.573Z,22.77
2017-12-13T08:40:58.137Z,26.40
2017-12-13T08:43:24.558Z,28.60
2017-12-13T08:45:51.404Z,35.50
2017-12-13T08:48:17.849Z,45.90
2017-12-13T08:50:44.362Z,49.30
2017-12-13T08:53:11.164Z,53.60
2017-12-13T08:55:37.519Z,60.80
2017-12-13T08:58:03.840Z,60.90
2017-12-13T09:00:30.685Z,60.07
2017-12-13T09:02:57.046Z,53.53
2017-12-13T09:05:23.440Z,46.53
2017-12-13T09:07:49.942Z,45.63
2017-12-13T09:10:16.710Z,42.57
2017-12-13T09:12:43.149Z,42.37
2017-12-13T09:15:09.833Z,40.77
2017-12-13T09:17:36.513Z,40.83
2017-12-13T09:20:02.997Z,38.07
2017-12-13T09:22:29.617Z,37.10
2017-12-13T09:24:56.213Z,34.00
2017-12-13T09:27:23.070Z,33.37
2017-12-13T09:29:49.491Z,33.87
2017-12-13T09:32:16.134Z,34.10
2017-12-13T09:34:42.567Z,34.17
2017-12-13T09:37:08.999Z,31.57
2017-12-13T09:39:35.434Z,31.07
2017-12-13T09:42:01.885Z,29.00
2017-12-13T09:44:28.303Z,25.13
2017-12-13T09:46:54.948Z,30.53
2017-12-13T09:49:21.312Z,27.20
2017-12-13T09:51:47.918Z,27.43
2017-12-13T09:54:14.451Z,27.23
2017-12-13T09:56:40.849Z,29.00
2017-12-13T09:59:07.351Z,29.10
2017-12-13T10:01:34.339Z,31.67
2017-12-13T10:04:00.782Z,28.77
2017-12-13T10:06:27.751Z,25.07
2017-12-13T10:08:54.408Z,20.87
2017-12-13T10:11:20.909Z,19.20
2017-12-13T10:13:47.296Z,19.20
2017-12-13T10:16:14.109Z,21.13
2017-12-13T10:18:40.540Z,18.10
2017-12-13T10:21:07.075Z,17.00
2017-12-13T10:23:33.919Z,19.40
2017-12-13T10:26:00.353Z,24.17
2017-12-13T10:28:26.788Z,26.37
2017-12-13T10:30:53.426Z,28.20
2017-12-13T10:33:20.100Z,32.00
2017-12-13T10:35:46.523Z,33.33
2017-12-13T10:38:12.869Z,30.43
2017-12-13T10:40:39.784Z,30.00
2017-12-13T10:43:06.216Z,29.23
2017-12-13T10:45:32.652Z,27.60
2017-12-13T10:47:59.496Z,26.90
2017-12-13T10:50:25.947Z,27.57
2017-12-13T10:52:52.466Z,26.07
2017-12-13T10:55:19.245Z,24.60
2017-12-13T10:57:45.743Z,25.50
2017-12-13T11:00:12.276Z,24.00
2017-12-13T11:02:39.333Z,26.23
2017-12-13T11:05:05.777Z,32.90
2017-12-13T11:07:32.203Z,55.77
2017-12-13T11:09:58.842Z,67.53
2017-12-13T11:12:25.242Z,73.40
2017-12-13T11:14:51.708Z,77.93
2017-12-13T11:17:18.333Z,72.10
2017-12-13T11:19:44.776Z,72.63
2017-12-13T11:22:11.282Z,71.17
2017-12-13T11:24:37.865Z,63.37
2017-12-13T11:27:04.290Z,57.20
2017-12-13T11:29:30.725Z,50.40
2017-12-13T11:31:57.364Z,52.93
2017-12-13T11:34:23.798Z,54.37
2017-12-13T11:36:50.540Z,56.30
2017-12-13T11:39:17.213Z,60.33
2017-12-13T11:41:43.682Z,57.50
2017-12-13T11:44:10.253Z,54.70
2017-12-13T11:46:37.097Z,54.70
2017-12-13T11:49:03.635Z,51.93
2017-12-13T11:51:30.172Z,52.40
2017-12-13T11:53:56.811Z,51.63
2017-12-13T11:56:23.180Z,48.37
2017-12-13T11:58:49.657Z,47.47
2017-12-13T12:01:16.425Z,48.87
2017-12-13T12:03:43.286Z,46.70
2017-12-13T12:06:09.884Z,45.50
2017-12-13T12:08:36.591Z,44.37
2017-12-13T12:11:03.171Z,43.30
2017-12-13T12:13:29.620Z,42.33
2017-12-13T12:15:56.259Z,42.87
2017-12-13T12:18:22.673Z,44.17
2017-12-13T12:20:49.160Z,42.77
2017-12-13T12:23:16.010Z,45.17
2017-12-13T12:25:42.817Z,50.30
2017-12-13T12:28:09.355Z,55.87
2017-12-13T12:30:36.197Z,60.30
2017-12-13T12:33:02.735Z,71.77
2017-12-13T12:35:29.168Z,71.80
2017-12-13T12:37:56.058Z,68.27
2017-12-13T12:40:22.632Z,70.43
2017-12-13T12:42:49.260Z,70.20
2017-12-13T12:45:18.620Z,67.40
2017-12-13T12:47:47.236Z,69.23
2017-12-13T12:50:13.819Z,62.67
2017-12-13T12:52:40.496Z,65.00
2017-12-13T12:55:06.987Z,62.80
2017-12-13T12:57:35.639Z,62.43
2017-12-13T13:00:02.632Z,60.90
2017-12-13T13:02:29.167Z,58.73
2017-12-13T13:04:55.601Z,63.43
2017-12-13T13:07:22.548Z,61.70
2017-12-13T13:09:49.085Z,65.47
2017-12-13T13:12:15.521Z,67.80
2017-12-13T13:14:42.096Z,62.53
2017-12-13T13:17:08.595Z,67.60
2017-12-13T13:19:35.027Z,65.93
2017-12-13T13:22:01.874Z,64.30
2017-12-13T13:24:28.305Z,66.17
2017-12-13T13:26:54.676Z,68.30
2017-12-13T13:29:21.484Z,63.30
2017-12-13T13:31:47.921Z,66.80
2017-12-13T13:34:14.351Z,67.17
2017-12-13T13:36:40.990Z,65.80
2017-12-13T13:39:07.361Z,68.90
2017-12-13T13:41:34.101Z,68.13
2017-12-13T13:44:00.807Z,66.57
2017-12-13T13:46:27.321Z,63.63
2017-12-13T13:48:54.525Z,65.80
2017-12-13T13:51:21.339Z,69.77
2017-12-13T13:53:47.877Z,59.50
2017-12-13T13:56:14.310Z,62.30
2017-12-13T13:58:40.951Z,59.73
2017-12-13T14:01:07.552Z,58.07
2017-12-13T14:03:34.025Z,58.00
2017-12-13T14:06:00.664Z,58.53
2017-12-13T14:08:27.101Z,61.53
2017-12-13T14:10:53.642Z,64.17
2017-12-13T14:13:20.519Z,64.57
2017-12-13T14:15:46.954Z,63.00
2017-12-13T14:18:13.451Z,63.33
2017-12-13T14:20:40.090Z,64.50
2017-12-13T14:23:06.527Z,61.60
2017-12-13T14:25:32.961Z,60.30
2017-12-13T14:27:59.532Z,62.80
2017-12-13T14:32:57.215Z,59.47
2017-12-13T14:35:23.819Z,58.70
2017-12-13T14:37:50.252Z,62.00
2017-12-13T14:40:16.789Z,56.60
2017-12-13T14:42:43.711Z,60.40
2017-12-13T14:45:10.298Z,60.23
2017-12-13T14:47:37.220Z,59.40
2017-12-13T14:50:04.065Z,51.53
2017-12-13T14:52:30.499Z,49.10
2017-12-13T14:54:56.933Z,49.87
2017-12-13T14:57:23.612Z,49.57
2017-12-13T14:59:50.314Z,46.67
2017-12-13T15:02:16.721Z,40.80
2017-12-13T15:04:44.108Z,43.50
2017-12-13T15:22:21.027Z,61.93
2017-12-13T15:24:47.412Z,59.67
2017-12-13T15:27:13.793Z,65.00
2017-12-13T15:29:40.228Z,58.63
2017-12-13T15:32:06.766Z,53.87
2017-12-13T15:34:33.099Z,46.90
2017-12-13T15:36:59.534Z,53.20
2017-12-13T15:39:25.968Z,68.30
2017-12-13T15:41:52.406Z,67.43
2017-12-13T15:44:18.837Z,62.00
2017-12-13T15:46:45.273Z,66.27
2017-12-13T15:49:11.694Z,60.33
2017-12-13T15:51:38.139Z,58.20
2017-12-13T15:54:04.760Z,53.60
2017-12-13T15:56:31.203Z,59.37
2017-12-13T15:58:57.618Z,50.90
2017-12-13T16:01:24.082Z,48.47
2017-12-13T16:03:50.503Z,46.87
2017-12-13T16:06:16.952Z,58.00
2017-12-13T16:08:43.284Z,55.30
2017-12-13T16:11:09.741Z,55.27
2017-12-13T16:13:36.054Z,51.97
2017-12-13T16:16:02.485Z,55.67
2017-12-13T16:18:28.818Z,57.70
2017-12-13T16:20:55.252Z,59.80
2017-12-13T16:23:21.694Z,58.47
2017-12-13T16:25:48.325Z,57.67
2017-12-13T16:28:14.792Z,57.63
2017-12-13T16:30:41.196Z,56.33
2017-12-13T16:33:07.630Z,55.77
2017-12-13T16:35:33.961Z,51.37
2017-12-13T16:38:00.396Z,53.00
2017-12-13T16:40:26.765Z,56.07
2017-12-13T16:42:53.163Z,55.30
2017-12-13T16:45:19.597Z,55.50
2017-12-13T16:47:45.966Z,47.10
2017-12-13T16:50:12.302Z,53.87
2017-12-13T16:52:38.696Z,51.23
2017-12-13T16:55:05.131Z,48.27
2017-12-13T16:57:31.584Z,47.30
2017-12-13T16:59:57.980Z,53.87
2017-12-13T17:02:24.437Z,60.67
2017-12-13T17:04:50.768Z,73.27
2017-12-13T17:07:17.133Z,53.87
2017-12-13T17:09:43.557Z,51.80
2017-12-13T17:12:10.070Z,51.73
2017-12-13T17:14:36.589Z,43.67
2017-12-13T17:17:02.976Z,44.40
2017-12-13T17:19:29.375Z,50.60
2017-12-13T17:21:55.811Z,40.90
2017-12-13T17:24:22.141Z,33.97
2017-12-13T17:26:48.503Z,37.43
2017-12-13T17:29:14.909Z,33.60
2017-12-13T17:31:41.445Z,33.43
2017-12-13T17:34:07.881Z,36.23
2017-12-13T17:36:34.419Z,49.80
2017-12-13T17:39:00.957Z,102.93
2017-12-13T17:41:27.389Z,115.57
2017-12-13T17:43:53.720Z,124.50
2017-12-13T17:46:20.053Z,103.60
2017-12-13T17:48:46.487Z,99.27
2017-12-13T17:51:12.923Z,65.67
2017-12-13T17:53:39.255Z,54.30
2017-12-13T17:56:05.689Z,61.50
2017-12-13T17:58:32.146Z,77.00
2017-12-13T18:00:58.574Z,58.93
2017-12-13T18:03:24.993Z,48.10
2017-12-13T18:05:51.767Z,48.67
2017-12-13T18:08:18.086Z,50.90
2017-12-13T18:10:44.579Z,47.07
2017-12-13T18:13:11.039Z,42.20
2017-12-13T18:15:37.404Z,40.93
2017-12-13T18:18:03.702Z,43.67
2017-12-13T18:20:30.138Z,43.97
2017-12-13T18:22:56.573Z,43.00
2017-12-13T18:25:23.005Z,43.20
2017-12-13T18:27:49.441Z,43.30
2017-12-13T18:30:15.875Z,41.37
2017-12-13T18:32:42.311Z,42.57
2017-12-13T18:35:08.690Z,41.53
2017-12-13T18:37:35.043Z,42.53
2017-12-13T18:40:01.439Z,44.77
2017-12-13T18:42:27.865Z,46.00
2017-12-13T18:44:54.174Z,44.77
2017-12-13T18:47:20.514Z,44.33
2017-12-13T18:49:47.454Z,43.50
2017-12-13T18:52:13.888Z,42.30
2017-12-13T18:54:40.217Z,41.33
2017-12-13T18:57:06.658Z,37.17
2017-12-13T18:59:33.090Z,39.83
2017-12-13T19:01:59.524Z,41.10
2017-12-13T19:04:25.959Z,35.53
2017-12-13T19:06:52.323Z,37.87
2017-12-13T19:09:18.726Z,39.10
2017-12-13T19:11:45.161Z,52.10
2017-12-13T19:14:11.614Z,58.53
2017-12-13T19:16:37.963Z,49.20
2017-12-13T19:19:04.363Z,42.63
2017-12-13T19:21:30.800Z,39.67
2017-12-13T19:23:57.232Z,38.80
2017-12-13T19:26:23.667Z,37.70
2017-12-13T19:28:50.101Z,38.70
2017-12-13T19:31:16.463Z,40.70
2017-12-13T19:33:42.835Z,42.73
2017-12-13T19:36:09.233Z,43.90
2017-12-13T19:38:35.690Z,52.00
2017-12-13T19:41:02.069Z,52.27
2017-12-13T19:43:28.503Z,49.33
2017-12-13T19:45:54.940Z,49.67
2017-12-13T19:48:21.373Z,52.00
2017-12-13T19:50:47.810Z,57.10
2017-12-13T19:53:14.128Z,56.50
2017-12-13T19:55:40.613Z,56.67
2017-12-13T19:58:06.963Z,56.17
2017-12-13T20:00:33.362Z,46.57
2017-12-13T20:02:59.775Z,64.10
2017-12-13T20:05:26.107Z,62.43
2017-12-13T20:07:52.542Z,74.20
2017-12-13T20:10:18.872Z,54.97
2017-12-13T20:12:45.290Z,75.17
2017-12-13T20:15:11.743Z,84.97
2017-12-13T20:17:38.180Z,90.30
2017-12-13T20:20:04.612Z,76.30
2017-12-13T20:22:31.151Z,69.83
2017-12-13T20:24:57.604Z,62.50
2017-12-13T20:27:24.018Z,63.30
2017-12-13T20:29:50.454Z,51.50
2017-12-13T20:32:16.991Z,53.60
2017-12-13T20:34:43.447Z,50.90
2017-12-13T20:37:09.859Z,44.30
2017-12-13T20:39:36.293Z,46.33
2017-12-13T20:42:02.727Z,45.73
2017-12-13T20:44:29.059Z,47.27
2017-12-13T20:46:55.393Z,48.20
2017-12-13T20:49:21.894Z,43.47
2017-12-13T20:51:48.261Z,43.93
2017-12-13T20:54:14.624Z,38.17
2017-12-13T20:56:41.028Z,34.47
2017-12-13T20:59:07.466Z,43.93
2017-12-13T21:01:33.884Z,50.93
2017-12-13T21:04:00.333Z,41.30
2017-12-13T21:06:26.872Z,51.53
2017-12-13T21:08:53.304Z,35.20
2017-12-13T21:11:19.738Z,34.60
2017-12-13T21:13:46.072Z,52.90
2017-12-13T21:16:12.507Z,44.90
2017-12-13T21:18:38.944Z,35.43
2017-12-13T21:21:05.376Z,35.57
2017-12-13T21:23:31.814Z,42.87
2017-12-13T21:25:58.246Z,38.77
2017-12-13T21:28:24.681Z,28.43
2017-12-13T21:30:51.135Z,22.07
2017-12-13T21:33:17.508Z,23.10
2017-12-13T21:35:43.951Z,22.70
2017-12-13T21:38:10.314Z,25.27
2017-12-13T21:40:36.736Z,20.60
2017-12-13T21:43:03.110Z,23.83
2017-12-13T21:45:29.449Z,26.77
2017-12-13T21:47:55.847Z,32.40
2017-12-13T21:50:22.281Z,33.40
2017-12-13T21:52:48.717Z,32.20
2017-12-13T21:55:15.088Z,33.90
2017-12-13T21:57:41.485Z,30.30
2017-12-13T22:00:07.918Z,28.40
2017-12-13T22:02:34.288Z,28.70
2017-12-13T22:05:00.686Z,32.73
2017-12-13T22:07:27.119Z,31.33
2017-12-13T22:09:53.658Z,32.47
2017-12-13T22:12:19.989Z,34.20
2017-12-13T22:14:46.424Z,31.50
2017-12-13T22:17:12.793Z,34.13
2017-12-13T22:19:39.189Z,37.87
2017-12-13T22:22:06.649Z,37.40
2017-12-13T22:24:33.083Z,37.40
2017-12-13T22:26:59.448Z,35.77
2017-12-13T22:29:25.851Z,36.43
2017-12-13T22:31:52.285Z,34.60
2017-12-13T22:34:18.822Z,36.50
2017-12-13T22:36:45.261Z,37.67
2017-12-13T22:39:11.795Z,38.30
2017-12-13T22:41:38.228Z,40.80
2017-12-13T22:44:04.662Z,39.67
2017-12-13T22:46:31.098Z,39.00
2017-12-13T22:48:57.553Z,39.00
2017-12-13T22:51:23.993Z,40.37
2017-12-13T22:53:50.401Z,40.43
2017-12-13T22:56:16.836Z,37.93
2017-12-13T22:58:43.271Z,38.77
2017-12-13T23:01:09.707Z,36.50
2017-12-13T23:03:36.162Z,37.70
2017-12-13T23:06:02.577Z,35.57
2017-12-13T23:08:29.012Z,33.40
2017-12-13T23:10:55.398Z,34.37
2017-12-13T23:13:21.708Z,35.37
2017-12-13T23:15:48.109Z,35.30
2017-12-13T23:18:14.543Z,35.47
2017-12-13T23:20:40.978Z,32.37
2017-12-13T23:23:07.412Z,34.67
2017-12-13T23:25:33.865Z,33.50
2017-12-13T23:28:00.219Z,33.33
2017-12-13T23:30:26.660Z,33.80
2017-12-13T23:32:52.976Z,35.30
2017-12-13T23:35:19.382Z,35.43
2017-12-13T23:37:45.712Z,37.00
2017-12-13T23:40:12.148Z,37.33
2017-12-13T23:42:38.581Z,37.17
2017-12-13T23:45:05.035Z,38.03
2017-12-13T23:47:31.408Z,37.70
2017-12-13T23:49:57.774Z,38.43
2017-12-13T23:52:24.115Z,41.67
2017-12-13T23:54:50.581Z,40.30
2017-12-13T23:57:16.985Z,41.13
2017-12-13T23:59:43.426Z,41.20
